Wetterdaten: Woche 18.04.11 - 24.04.11 (KW16)
Datum Zeit Temp. Innen Temp. Aussen UV X Diff Temp. Feuchte Inne Feuchte Auss Sonnenschein Luftdruck Regen ab 0,1 Wind Sonnenschein T Regendauer Windben
18.04.2011 00:00 19,1 C 10,6 C 0,0 UV-I 0,0 C 43 % 57 % 0 % 1024,9 hPa 0,0 l/m 0,0 km/h (0 Bft) 0,00 h 0,00 h 0,0 km/h (0 Bft)
18.04.2011 01:00 18,8 C 8,7 C 0,0 UV-I 0,0 C 43 % 64 % 0 % 1024,7 hPa 0,0 l/m 0,0 km/h (0 Bft) 0,00 h 0,00 h 0,0 km/h (0 Bft)
18.04.2011 02:00 18,5 C 7,3 C 0,0 UV-I 0,0 C 44 % 71 % 0 % 1024,2 hPa 0,0 l/m 0,0 km/h (0 Bft) 0,00 h 0,00 h 0,0 km/h (0 Bft)
18.04.2011 03:00 18,2 C 6,4 C 0,0 UV-I 0,0 C 44 % 75 % 0 % 1024,1 hPa 0,0 l/m 0,0 km/h (0 Bft) 0,00 h 0,00 h 0,0 km/h (0 Bft)
18.04.2011 04:00 17,9 C 5,4 C 0,0 UV-I 0,0 C 45 % 78 % 0 % 1023,7 hPa 0,0 l/m 0,0 km/h (0 Bft) 0,00 h 0,00 h 0,0 km/h (0 Bft)
18.04.2011 05:00 17,7 C 4,7 C 0,0 UV-I 0,0 C 45 % 80 % 0 % 1023,6 hPa 0,0 l/m 0,0 km/h (0 Bft) 0,00 h 0,00 h 0,0 km/h (0 Bft)
18.04.2011 06:00 17,5 C 3,9 C 0,0 UV-I 0,0 C 45 % 83 % 0 % 1023,3 hPa 0,0 l/m 0,0 km/h (0 Bft) 0,00 h 0,00 h 0,0 km/h (0 Bft)
18.04.2011 07:00 17,2 C 3,7 C 0,0 UV-I 0,0 C 45 % 85 % 0 % 1023,3 hPa 0,0 l/m 0,0 km/h (0 Bft) 0,00 h 0,00 h 0,0 km/h (0 Bft)
18.04.2011 08:00 17,2 C 6,0 C 0,1 UV-I 2,3 C 46 % 86 % 44 % 1023,3 hPa 0,0 l/m 0,2 km/h (0 Bft) 0,37 h 0,00 h 0,6 km/h (0 Bft)
18.04.2011 09:00 17,4 C 10,9 C 0,9 UV-I 7,7 C 46 % 71 % 100 % 1023,1 hPa 0,0 l/m 0,9 km/h (0 Bft) 1,00 h 0,00 h 3,0 km/h (1 Bft)
18.04.2011 10:00 17,6 C 14,1 C 5,4 UV-I 7,2 C 46 % 54 % 100 % 1022,7 hPa 0,0 l/m 3,4 km/h (1 Bft) 1,00 h 0,00 h 6,1 km/h (2 Bft)
18.04.2011 11:00 17,9 C 16,4 C 6,6 UV-I 7,6 C 46 % 46 % 100 % 1022,4 hPa 0,0 l/m 3,9 km/h (1 Bft) 1,00 h 0,00 h 6,5 km/h (2 Bft)
18.04.2011 12:00 18,3 C 18,4 C 3,8 UV-I 6,7 C 45 % 38 % 100 % 1021,9 hPa 0,0 l/m 6,5 km/h (2 Bft) 1,00 h 0,00 h 9,8 km/h (2 Bft)
18.04.2011 13:00 19,1 C 20,0 C 6,1 UV-I 5,7 C 44 % 34 % 100 % 1021,3 hPa 0,0 l/m 8,1 km/h (2 Bft) 1,00 h 0,00 h 12,8 km/h (3 Bft)
18.04.2011 14:00 20,5 C 21,0 C 6,3 UV-I 5,1 C 41 % 32 % 100 % 1021,3 hPa 0,0 l/m 9,4 km/h (2 Bft) 1,00 h 0,00 h 14,5 km/h (3 Bft)
18.04.2011 15:00 21,6 C 21,6 C 7,6 UV-I 4,8 C 39 % 31 % 100 % 1021,1 hPa 0,0 l/m 9,2 km/h (2 Bft) 1,00 h 0,00 h 12,7 km/h (3 Bft)
18.04.2011 16:00 22,5 C 22,0 C 7,3 UV-I 4,5 C 38 % 30 % 100 % 1020,3 hPa 0,0 l/m 9,0 km/h (2 Bft) 1,00 h 0,00 h 11,9 km/h (2 Bft)
18.04.2011 17:00 23,0 C 22,1 C 3,9 UV-I 4,0 C 36 % 30 % 97 % 1019,6 hPa 0,0 l/m 6,7 km/h (2 Bft) 1,00 h 0,00 h 9,2 km/h (2 Bft)
18.04.2011 18:00 22,6 C 21,1 C 0,5 UV-I 0,6 C 37 % 30 % 18 % 1018,6 hPa 0,0 l/m 7,0 km/h (2 Bft) 0,07 h 0,00 h 9,4 km/h (2 Bft)
18.04.2011 19:00 22,2 C 19,9 C 0,0 UV-I 0,0 C 37 % 33 % 0 % 1018,0 hPa 0,0 l/m 4,2 km/h (1 Bft) 0,00 h 0,00 h 6,1 km/h (2 Bft)
18.04.2011 20:00 21,7 C 18,2 C 0,0 UV-I 0,0 C 39 % 38 % 0 % 1017,5 hPa 0,0 l/m 0,8 km/h (0 Bft) 0,00 h 0,00 h 1,9 km/h (1 Bft)
18.04.2011 21:00 21,2 C 16,0 C 0,0 UV-I 0,0 C 40 % 44 % 0 % 1017,4 hPa 0,0 l/m 0,2 km/h (0 Bft) 0,00 h 0,00 h 0,8 km/h (0 Bft)
18.04.2011 22:00 20,6 C 14,9 C 0,0 UV-I 0,0 C 41 % 46 % 0 % 1017,2 hPa 0,0 l/m 0,3 km/h (0 Bft) 0,00 h 0,00 h 1,7 km/h (1 Bft)
18.04.2011 23:00 20,2 C 14,4 C 0,0 UV-I 0,0 C 42 % 47 % 0 % 1017,2 hPa 0,0 l/m 1,9 km/h (1 Bft) 0,00 h 0,00 h 4,3 km/h (1 Bft)
19.04.2011 00:00 19,9 C 13,5 C 0,0 UV-I 0,0 C 42 % 49 % 0 % 1017,2 hPa 0,0 l/m 3,4 km/h (1 Bft) 0,00 h 0,00 h 6,1 km/h (2 Bft)
19.04.2011 01:00 19,7 C 12,3 C 0,0 UV-I 0,0 C 42 % 53 % 0 % 1017,2 hPa 0,0 l/m 3,1 km/h (1 Bft) 0,00 h 0,00 h 5,4 km/h (1 Bft)
19.04.2011 02:00 19,5 C 11,2 C 0,0 UV-I 0,0 C 42 % 57 % 0 % 1016,9 hPa 0,0 l/m 2,4 km/h (1 Bft) 0,00 h 0,00 h 3,9 km/h (1 Bft)
19.04.2011 03:00 19,2 C 10,6 C 0,0 UV-I 0,0 C 43 % 59 % 0 % 1016,8 hPa 0,0 l/m 3,8 km/h (1 Bft) 0,00 h 0,00 h 6,2 km/h (2 Bft)
19.04.2011 04:00 19,1 C 10,2 C 0,0 UV-I 0,0 C 43 % 61 % 0 % 1016,3 hPa 0,0 l/m 3,9 km/h (1 Bft) 0,00 h 0,00 h 6,1 km/h (2 Bft)
19.04.2011 05:00 18,9 C 9,9 C 0,0 UV-I 0,0 C 43 % 61 % 0 % 1016,2 hPa 0,0 l/m 2,4 km/h (1 Bft) 0,00 h 0,00 h 3,8 km/h (1 Bft)
19.04.2011 06:00 18,7 C 9,3 C 0,0 UV-I 0,0 C 44 % 63 % 0 % 1016,1 hPa 0,0 l/m 0,5 km/h (0 Bft) 0,00 h 0,00 h 1,1 km/h (1 Bft)
19.04.2011 07:00 18,6 C 9,6 C 0,0 UV-I 0,0 C 44 % 64 % 0 % 1016,4 hPa 0,0 l/m 3,1 km/h (1 Bft) 0,00 h 0,00 h 6,3 km/h (2 Bft)
19.04.2011 08:00 18,6 C 11,5 C 0,1 UV-I 1,3 C 44 % 61 % 34 % 1016,8 hPa 0,0 l/m 7,5 km/h (2 Bft) 0,27 h 0,00 h 11,3 km/h (2 Bft)
19.04.2011 09:00 18,8 C 14,3 C 1,2 UV-I 4,7 C 43 % 55 % 100 % 1016,9 hPa 0,0 l/m 8,6 km/h (2 Bft) 1,00 h 0,00 h 12,7 km/h (3 Bft)
19.04.2011 10:00 19,0 C 16,9 C 5,9 UV-I 5,5 C 43 % 50 % 100 % 1017,2 hPa 0,0 l/m 7,6 km/h (2 Bft) 1,00 h 0,00 h 9,0 km/h (2 Bft)
19.04.2011 11:00 19,2 C 19,6 C 6,9 UV-I 5,7 C 43 % 44 % 100 % 1017,1 hPa 0,0 l/m 7,8 km/h (2 Bft) 1,00 h 0,00 h 9,7 km/h (2 Bft)
19.04.2011 12:00 19,6 C 21,9 C 3,9 UV-I 5,1 C 43 % 35 % 100 % 1017,1 hPa 0,0 l/m 10,2 km/h (2 Bft) 1,00 h 0,00 h 14,3 km/h (3 Bft)
19.04.2011 13:00 20,4 C 23,4 C 6,4 UV-I 4,9 C 42 % 31 % 100 % 1016,9 hPa 0,0 l/m 9,8 km/h (2 Bft) 1,00 h 0,00 h 13,3 km/h (3 Bft)
19.04.2011 14:00 21,6 C 24,5 C 6,7 UV-I 5,4 C 40 % 29 % 100 % 1017,0 hPa 0,0 l/m 7,2 km/h (2 Bft) 1,00 h 0,00 h 9,1 km/h (2 Bft)
19.04.2011 15:00 22,7 C 25,1 C 7,9 UV-I 5,8 C 39 % 29 % 100 % 1017,2 hPa 0,0 l/m 5,3 km/h (1 Bft) 1,00 h 0,00 h 8,3 km/h (2 Bft)
19.04.2011 16:00 23,6 C 25,5 C 7,8 UV-I 5,4 C 38 % 28 % 100 % 1017,4 hPa 0,0 l/m 4,4 km/h (1 Bft) 1,00 h 0,00 h 6,1 km/h (2 Bft)
19.04.2011 17:00 24,0 C 25,2 C 4,3 UV-I 5,4 C 37 % 27 % 100 % 1017,1 hPa 0,0 l/m 3,0 km/h (1 Bft) 1,00 h 0,00 h 4,9 km/h (1 Bft)
19.04.2011 18:00 23,6 C 23,8 C 0,7 UV-I 1,1 C 37 % 28 % 31 % 1016,5 hPa 0,0 l/m 2,7 km/h (1 Bft) 0,13 h 0,00 h 4,4 km/h (1 Bft)
19.04.2011 19:00 23,1 C 22,7 C 0,0 UV-I 0,0 C 38 % 32 % 0 % 1016,3 hPa 0,0 l/m 1,3 km/h (1 Bft) 0,00 h 0,00 h 1,8 km/h (1 Bft)
19.04.2011 20:00 22,7 C 20,0 C 0,0 UV-I 0,0 C 39 % 41 % 0 % 1016,0 hPa 0,0 l/m 0,0 km/h (0 Bft) 0,00 h 0,00 h 0,0 km/h (0 Bft)
19.04.2011 21:00 22,2 C 16,7 C 0,0 UV-I 0,0 C 40 % 50 % 0 % 1016,2 hPa 0,0 l/m 0,0 km/h (0 Bft) 0,00 h 0,00 h 0,0 km/h (0 Bft)
19.04.2011 22:00 21,5 C 15,9 C 0,0 UV-I 0,0 C 41 % 48 % 0 % 1016,4 hPa 0,0 l/m 0,0 km/h (0 Bft) 0,00 h 0,00 h 0,0 km/h (0 Bft)
19.04.2011 23:00 21,1 C 14,8 C 0,0 UV-I 0,0 C 42 % 51 % 0 % 1016,7 hPa 0,0 l/m 0,0 km/h (0 Bft) 0,00 h 0,00 h 0,0 km/h (0 Bft)
20.04.2011 00:00 20,8 C 12,8 C 0,0 UV-I 0,0 C 43 % 58 % 0 % 1016,9 hPa 0,0 l/m 0,0 km/h (0 Bft) 0,00 h 0,00 h 0,0 km/h (0 Bft)
20.04.2011 01:00 20,5 C 11,2 C 0,0 UV-I 0,0 C 44 % 65 % 0 % 1016,8 hPa 0,0 l/m 0,0 km/h (0 Bft) 0,00 h 0,00 h 0,0 km/h (0 Bft)
20.04.2011 02:00 20,2 C 9,9 C 0,0 UV-I 0,0 C 44 % 72 % 0 % 1016,7 hPa 0,0 l/m 0,0 km/h (0 Bft) 0,00 h 0,00 h 0,0 km/h (0 Bft)
20.04.2011 03:00 20,0 C 9,1 C 0,0 UV-I 0,0 C 45 % 76 % 0 % 1016,6 hPa 0,0 l/m 0,0 km/h (0 Bft) 0,00 h 0,00 h 0,0 km/h (0 Bft)
20.04.2011 04:00 19,7 C 8,3 C 0,0 UV-I 0,0 C 45 % 79 % 0 % 1016,6 hPa 0,0 l/m 0,0 km/h (0 Bft) 0,00 h 0,00 h 0,0 km/h (0 Bft)
20.04.2011 05:00 19,5 C 7,8 C 0,0 UV-I 0,0 C 46 % 81 % 0 % 1016,7 hPa 0,0 l/m 0,0 km/h (0 Bft) 0,00 h 0,00 h 0,0 km/h (0 Bft)
20.04.2011 06:00 19,3 C 7,1 C 0,0 UV-I 0,0 C 46 % 83 % 0 % 1016,8 hPa 0,0 l/m 0,0 km/h (0 Bft) 0,00 h 0,00 h 0,0 km/h (0 Bft)
20.04.2011 07:00 19,1 C 7,1 C 0,0 UV-I 0,0 C 46 % 85 % 1 % 1016,9 hPa 0,0 l/m 0,0 km/h (0 Bft) 0,00 h 0,00 h 0,1 km/h (0 Bft)
20.04.2011 08:00 19,2 C 10,0 C 0,2 UV-I 2,0 C 46 % 81 % 50 % 1017,2 hPa 0,0 l/m 4,5 km/h (1 Bft) 0,33 h 0,00 h 6,9 km/h (2 Bft)
20.04.2011 09:00 19,3 C 14,4 C 1,5 UV-I 5,7 C 46 % 68 % 100 % 1017,2 hPa 0,0 l/m 3,9 km/h (1 Bft) 1,00 h 0,00 h 6,7 km/h (2 Bft)
20.04.2011 10:00 19,5 C 17,8 C 5,6 UV-I 6,4 C 46 % 57 % 100 % 1017,4 hPa 0,0 l/m 4,1 km/h (1 Bft) 1,00 h 0,00 h 7,1 km/h (2 Bft)
20.04.2011 11:00 19,9 C 20,3 C 6,8 UV-I 6,4 C 46 % 47 % 100 % 1017,4 hPa 0,0 l/m 4,6 km/h (1 Bft) 1,00 h 0,00 h 7,6 km/h (2 Bft)
20.04.2011 12:00 20,2 C 22,7 C 3,8 UV-I 6,5 C 45 % 37 % 100 % 1017,1 hPa 0,0 l/m 4,8 km/h (1 Bft) 1,00 h 0,00 h 8,2 km/h (2 Bft)
20.04.2011 13:00 20,9 C 24,2 C 6,3 UV-I 6,1 C 44 % 31 % 100 % 1017,2 hPa 0,0 l/m 5,0 km/h (1 Bft) 1,00 h 0,00 h 7,3 km/h (2 Bft)
20.04.2011 14:00 22,1 C 24,9 C 6,6 UV-I 5,5 C 42 % 28 % 100 % 1017,3 hPa 0,0 l/m 6,4 km/h (2 Bft) 1,00 h 0,00 h 7,4 km/h (2 Bft)
20.04.2011 15:00 23,2 C 25,4 C 7,7 UV-I 5,5 C 40 % 26 % 100 % 1017,4 hPa 0,0 l/m 5,7 km/h (1 Bft) 1,00 h 0,00 h 8,1 km/h (2 Bft)
20.04.2011 16:00 24,1 C 25,9 C 7,4 UV-I 5,7 C 38 % 25 % 100 % 1017,1 hPa 0,0 l/m 4,0 km/h (1 Bft) 1,00 h 0,00 h 6,2 km/h (2 Bft)
20.04.2011 17:00 24,6 C 26,0 C 4,2 UV-I 4,2 C 36 % 24 % 99 % 1016,9 hPa 0,0 l/m 4,7 km/h (1 Bft) 0,97 h 0,00 h 5,6 km/h (1 Bft)
20.04.2011 18:00 24,2 C 24,7 C 1,1 UV-I 0,5 C 37 % 27 % 14 % 1016,2 hPa 0,0 l/m 3,9 km/h (1 Bft) 0,00 h 0,00 h 6,1 km/h (2 Bft)
20.04.2011 19:00 23,7 C 23,6 C 0,1 UV-I 0,0 C 37 % 30 % 0 % 1016,0 hPa 0,0 l/m 0,8 km/h (0 Bft) 0,00 h 0,00 h 1,8 km/h (1 Bft)
20.04.2011 20:00 23,2 C 20,9 C 0,0 UV-I 0,0 C 39 % 38 % 0 % 1015,9 hPa 0,0 l/m 0,0 km/h (0 Bft) 0,00 h 0,00 h 0,0 km/h (0 Bft)
20.04.2011 21:00 22,7 C 17,5 C 0,0 UV-I 0,0 C 40 % 48 % 0 % 1016,0 hPa 0,0 l/m 0,1 km/h (0 Bft) 0,00 h 0,00 h 0,3 km/h (0 Bft)
20.04.2011 22:00 22,1 C 15,2 C 0,0 UV-I 0,0 C 41 % 56 % 0 % 1016,0 hPa 0,0 l/m 0,0 km/h (0 Bft) 0,00 h 0,00 h 0,0 km/h (0 Bft)
20.04.2011 23:00 21,6 C 13,7 C 0,0 UV-I 0,0 C 42 % 62 % 0 % 1016,1 hPa 0,0 l/m 0,0 km/h (0 Bft) 0,00 h 0,00 h 0,0 km/h (0 Bft)
21.04.2011 00:00 21,3 C 12,7 C 0,0 UV-I 0,0 C 44 % 69 % 0 % 1016,4 hPa 0,0 l/m 0,0 km/h (0 Bft) 0,00 h 0,00 h 0,0 km/h (0 Bft)
21.04.2011 01:00 21,0 C 11,7 C 0,0 UV-I 0,0 C 44 % 73 % 0 % 1016,6 hPa 0,0 l/m 0,0 km/h (0 Bft) 0,00 h 0,00 h 0,0 km/h (0 Bft)
21.04.2011 02:00 20,7 C 10,9 C 0,0 UV-I 0,0 C 45 % 77 % 0 % 1016,5 hPa 0,0 l/m 0,0 km/h (0 Bft) 0,00 h 0,00 h 0,0 km/h (0 Bft)
21.04.2011 03:00 20,5 C 10,3 C 0,0 UV-I 0,0 C 46 % 79 % 0 % 1016,3 hPa 0,0 l/m 0,0 km/h (0 Bft) 0,00 h 0,00 h 0,2 km/h (0 Bft)
21.04.2011 04:00 20,3 C 9,9 C 0,0 UV-I 0,0 C 46 % 80 % 0 % 1016,2 hPa 0,0 l/m 0,0 km/h (0 Bft) 0,00 h 0,00 h 0,0 km/h (0 Bft)
21.04.2011 05:00 20,2 C 11,1 C 0,0 UV-I 0,0 C 46 % 75 % 0 % 1016,1 hPa 0,0 l/m 0,0 km/h (0 Bft) 0,00 h 0,00 h 0,1 km/h (0 Bft)
21.04.2011 06:00 20,1 C 12,0 C 0,0 UV-I 0,0 C 47 % 70 % 0 % 1016,2 hPa 0,0 l/m 2,2 km/h (1 Bft) 0,00 h 0,00 h 4,4 km/h (1 Bft)
21.04.2011 07:00 20,1 C 12,6 C 0,0 UV-I 0,0 C 46 % 66 % 0 % 1016,4 hPa 0,0 l/m 6,7 km/h (2 Bft) 0,00 h 0,00 h 10,3 km/h (2 Bft)
21.04.2011 08:00 20,1 C 13,5 C 0,5 UV-I 0,4 C 46 % 66 % 12 % 1016,6 hPa 0,0 l/m 3,6 km/h (1 Bft) 0,00 h 0,00 h 6,4 km/h (2 Bft)
21.04.2011 09:00 20,2 C 15,0 C 1,9 UV-I 4,1 C 46 % 64 % 87 % 1016,7 hPa 0,0 l/m 4,0 km/h (1 Bft) 0,80 h 0,00 h 6,2 km/h (2 Bft)
21.04.2011 10:00 20,4 C 18,2 C 5,2 UV-I 6,8 C 46 % 59 % 100 % 1016,7 hPa 0,0 l/m 2,6 km/h (1 Bft) 1,00 h 0,00 h 4,4 km/h (1 Bft)
21.04.2011 11:00 20,7 C 21,2 C 6,3 UV-I 8,0 C 46 % 48 % 100 % 1016,6 hPa 0,0 l/m 1,6 km/h (1 Bft) 1,00 h 0,00 h 3,3 km/h (1 Bft)
21.04.2011 12:00 21,0 C 23,7 C 4,1 UV-I 7,7 C 46 % 38 % 100 % 1016,5 hPa 0,0 l/m 1,7 km/h (1 Bft) 1,00 h 0,00 h 3,7 km/h (1 Bft)
21.04.2011 13:00 21,7 C 25,6 C 6,0 UV-I 6,8 C 45 % 33 % 100 % 1016,2 hPa 0,0 l/m 3,3 km/h (1 Bft) 1,00 h 0,00 h 5,4 km/h (1 Bft)
21.04.2011 14:00 22,6 C 26,0 C 4,8 UV-I 4,5 C 44 % 29 % 100 % 1016,1 hPa 0,0 l/m 4,4 km/h (1 Bft) 1,00 h 0,00 h 7,2 km/h (2 Bft)
21.04.2011 15:00 23,3 C 26,1 C 3,9 UV-I 2,9 C 43 % 28 % 80 % 1016,3 hPa 0,0 l/m 3,5 km/h (1 Bft) 0,63 h 0,00 h 5,7 km/h (1 Bft)
21.04.2011 16:00 23,7 C 25,6 C 3,6 UV-I 3,6 C 42 % 29 % 89 % 1016,4 hPa 0,0 l/m 6,4 km/h (2 Bft) 0,77 h 0,00 h 9,6 km/h (2 Bft)
21.04.2011 17:00 23,8 C 25,5 C 2,6 UV-I 2,9 C 42 % 29 % 80 % 1015,4 hPa 0,0 l/m 4,1 km/h (1 Bft) 0,50 h 0,00 h 6,1 km/h (2 Bft)
21.04.2011 18:00 23,7 C 24,7 C 1,0 UV-I 0,6 C 42 % 31 % 16 % 1014,9 hPa 0,0 l/m 1,0 km/h (0 Bft) 0,03 h 0,00 h 1,6 km/h (1 Bft)
21.04.2011 19:00 23,3 C 23,2 C 0,2 UV-I 0,0 C 43 % 38 % 0 % 1014,5 hPa 0,0 l/m 0,0 km/h (0 Bft) 0,00 h 0,00 h 0,0 km/h (0 Bft)
21.04.2011 20:00 23,0 C 21,0 C 0,0 UV-I 0,0 C 43 % 45 % 0 % 1014,2 hPa 0,0 l/m 0,0 km/h (0 Bft) 0,00 h 0,00 h 0,0 km/h (0 Bft)
21.04.2011 21:00 22,6 C 17,8 C 0,0 UV-I 0,0 C 44 % 55 % 0 % 1014,5 hPa 0,0 l/m 0,0 km/h (0 Bft) 0,00 h 0,00 h 0,0 km/h (0 Bft)
21.04.2011 22:00 22,1 C 15,5 C 0,0 UV-I 0,0 C 46 % 62 % 0 % 1014,6 hPa 0,0 l/m 0,0 km/h (0 Bft) 0,00 h 0,00 h 0,0 km/h (0 Bft)
21.04.2011 23:00 21,7 C 14,1 C 0,0 UV-I 0,0 C 47 % 68 % 0 % 1014,2 hPa 0,0 l/m 0,3 km/h (0 Bft) 0,00 h 0,00 h 1,0 km/h (0 Bft)
22.04.2011 00:00 21,4 C 13,2 C 0,0 UV-I 0,0 C 47 % 73 % 0 % 1014,0 hPa 0,0 l/m 0,0 km/h (0 Bft) 0,00 h 0,00 h 0,0 km/h (0 Bft)
22.04.2011 01:00 21,2 C 12,4 C 0,0 UV-I 0,0 C 48 % 77 % 0 % 1013,8 hPa 0,0 l/m 0,2 km/h (0 Bft) 0,00 h 0,00 h 0,4 km/h (0 Bft)
22.04.2011 02:00 21,0 C 12,1 C 0,0 UV-I 0,0 C 49 % 79 % 0 % 1013,6 hPa 0,0 l/m 0,0 km/h (0 Bft) 0,00 h 0,00 h 0,0 km/h (0 Bft)
22.04.2011 03:00 20,8 C 12,2 C 0,0 UV-I 0,0 C 49 % 81 % 0 % 1013,3 hPa 0,0 l/m 0,0 km/h (0 Bft) 0,00 h 0,00 h 0,0 km/h (0 Bft)
22.04.2011 04:00 20,8 C 12,5 C 0,0 UV-I 0,0 C 50 % 79 % 0 % 1013,2 hPa 0,0 l/m 0,0 km/h (0 Bft) 0,00 h 0,00 h 0,0 km/h (0 Bft)
22.04.2011 05:00 20,6 C 11,9 C 0,0 UV-I 0,0 C 50 % 79 % 0 % 1012,9 hPa 0,0 l/m 0,1 km/h (0 Bft) 0,00 h 0,00 h 0,5 km/h (0 Bft)
22.04.2011 06:00 20,5 C 11,4 C 0,0 UV-I 0,0 C 49 % 78 % 0 % 1012,9 hPa 0,0 l/m 0,0 km/h (0 Bft) 0,00 h 0,00 h 0,0 km/h (0 Bft)
22.04.2011 07:00 20,3 C 11,2 C 0,2 UV-I 0,0 C 49 % 79 % 0 % 1012,7 hPa 0,0 l/m 0,3 km/h (0 Bft) 0,00 h 0,00 h 0,6 km/h (0 Bft)
22.04.2011 08:00 20,3 C 13,6 C 0,8 UV-I 1,7 C 49 % 72 % 44 % 1012,7 hPa 0,0 l/m 2,0 km/h (1 Bft) 0,33 h 0,00 h 5,1 km/h (1 Bft)
22.04.2011 09:00 20,5 C 17,0 C 2,1 UV-I 4,9 C 49 % 63 % 100 % 1012,6 hPa 0,0 l/m 4,9 km/h (1 Bft) 1,00 h 0,00 h 8,7 km/h (2 Bft)
22.04.2011 10:00 20,8 C 19,9 C 4,7 UV-I 5,6 C 49 % 54 % 100 % 1012,5 hPa 0,0 l/m 5,4 km/h (1 Bft) 1,00 h 0,00 h 9,0 km/h (2 Bft)
22.04.2011 11:00 21,0 C 22,3 C 5,5 UV-I 5,8 C 49 % 47 % 100 % 1012,2 hPa 0,0 l/m 5,9 km/h (2 Bft) 1,00 h 0,00 h 8,2 km/h (2 Bft)
22.04.2011 12:00 21,4 C 24,6 C 4,0 UV-I 5,9 C 49 % 40 % 100 % 1012,2 hPa 0,0 l/m 6,1 km/h (2 Bft) 1,00 h 0,00 h 8,1 km/h (2 Bft)
22.04.2011 13:00 22,1 C 26,5 C 6,1 UV-I 5,2 C 47 % 34 % 100 % 1012,1 hPa 0,0 l/m 8,3 km/h (2 Bft) 1,00 h 0,00 h 12,3 km/h (3 Bft)
22.04.2011 14:00 23,2 C 27,7 C 6,1 UV-I 4,9 C 45 % 28 % 100 % 1011,9 hPa 0,0 l/m 7,7 km/h (2 Bft) 1,00 h 0,00 h 11,0 km/h (2 Bft)
22.04.2011 15:00 24,1 C 28,5 C 7,0 UV-I 5,0 C 42 % 25 % 100 % 1012,1 hPa 0,0 l/m 7,5 km/h (2 Bft) 1,00 h 0,00 h 9,8 km/h (2 Bft)
22.04.2011 16:00 24,9 C 28,8 C 5,9 UV-I 4,4 C 40 % 23 % 100 % 1011,6 hPa 0,0 l/m 6,7 km/h (2 Bft) 1,00 h 0,00 h 8,9 km/h (2 Bft)
22.04.2011 17:00 25,3 C 28,5 C 3,5 UV-I 4,0 C 39 % 23 % 99 % 1011,2 hPa 0,0 l/m 4,3 km/h (1 Bft) 1,00 h 0,00 h 5,6 km/h (1 Bft)
22.04.2011 18:00 25,0 C 27,3 C 1,2 UV-I 1,2 C 40 % 24 % 36 % 1011,0 hPa 0,0 l/m 3,5 km/h (1 Bft) 0,10 h 0,00 h 6,5 km/h (2 Bft)
22.04.2011 19:00 24,6 C 25,7 C 0,2 UV-I 0,0 C 41 % 28 % 0 % 1011,0 hPa 0,0 l/m 2,5 km/h (1 Bft) 0,00 h 0,00 h 4,0 km/h (1 Bft)
22.04.2011 20:00 24,1 C 23,6 C 0,0 UV-I 0,0 C 41 % 33 % 0 % 1011,0 hPa 0,0 l/m 0,3 km/h (0 Bft) 0,00 h 0,00 h 0,2 km/h (0 Bft)
22.04.2011 21:00 23,8 C 21,1 C 0,0 UV-I 0,0 C 42 % 40 % 0 % 1011,3 hPa 0,0 l/m 0,0 km/h (0 Bft) 0,00 h 0,00 h 0,2 km/h (0 Bft)
22.04.2011 22:00 23,4 C 19,6 C 0,0 UV-I 0,0 C 43 % 44 % 0 % 1011,7 hPa 0,0 l/m 0,1 km/h (0 Bft) 0,00 h 0,00 h 0,7 km/h (0 Bft)
22.04.2011 23:00 22,9 C 18,9 C 0,0 UV-I 0,0 C 44 % 47 % 0 % 1011,7 hPa 0,0 l/m 0,2 km/h (0 Bft) 0,00 h 0,00 h 0,6 km/h (0 Bft)
23.04.2011 00:00 22,6 C 17,2 C 0,0 UV-I 0,0 C 45 % 51 % 0 % 1012,0 hPa 0,0 l/m 0,0 km/h (0 Bft) 0,00 h 0,00 h 0,0 km/h (0 Bft)
23.04.2011 01:00 22,3 C 15,2 C 0,0 UV-I 0,0 C 45 % 58 % 0 % 1011,9 hPa 0,0 l/m 0,0 km/h (0 Bft) 0,00 h 0,00 h 0,0 km/h (0 Bft)
23.04.2011 02:00 22,0 C 13,9 C 0,0 UV-I 0,0 C 46 % 63 % 0 % 1012,0 hPa 0,0 l/m 0,0 km/h (0 Bft) 0,00 h 0,00 h 0,0 km/h (0 Bft)
23.04.2011 03:00 21,8 C 13,0 C 0,0 UV-I 0,0 C 47 % 68 % 0 % 1012,2 hPa 0,0 l/m 0,0 km/h (0 Bft) 0,00 h 0,00 h 0,0 km/h (0 Bft)
23.04.2011 04:00 21,6 C 12,5 C 0,0 UV-I 0,0 C 47 % 72 % 0 % 1012,0 hPa 0,0 l/m 0,0 km/h (0 Bft) 0,00 h 0,00 h 0,0 km/h (0 Bft)
23.04.2011 05:00 21,4 C 12,6 C 0,0 UV-I 0,0 C 47 % 72 % 0 % 1011,6 hPa 0,0 l/m 0,0 km/h (0 Bft) 0,00 h 0,00 h 0,0 km/h (0 Bft)
23.04.2011 06:00 21,2 C 12,5 C 0,0 UV-I 0,0 C 48 % 73 % 0 % 1011,2 hPa 0,0 l/m 0,7 km/h (0 Bft) 0,00 h 0,00 h 2,0 km/h (1 Bft)
23.04.2011 07:00 21,1 C 12,7 C 0,3 UV-I 0,0 C 48 % 74 % 1 % 1011,7 hPa 0,0 l/m 0,1 km/h (0 Bft) 0,00 h 0,00 h 0,2 km/h (0 Bft)
23.04.2011 08:00 21,1 C 13,9 C 0,8 UV-I 0,1 C 48 % 74 % 4 % 1012,3 hPa 0,0 l/m 0,4 km/h (0 Bft) 0,00 h 0,00 h 0,5 km/h (0 Bft)
23.04.2011 09:00 21,2 C 15,3 C 1,3 UV-I 2,7 C 49 % 72 % 70 % 1012,5 hPa 0,0 l/m 0,6 km/h (0 Bft) 0,50 h 0,00 h 1,3 km/h (1 Bft)
23.04.2011 10:00 21,5 C 17,4 C 1,5 UV-I 2,3 C 48 % 65 % 63 % 1012,9 hPa 0,0 l/m 0,5 km/h (0 Bft) 0,33 h 0,00 h 0,9 km/h (0 Bft)
23.04.2011 11:00 21,7 C 17,9 C 1,7 UV-I 1,0 C 48 % 68 % 29 % 1013,1 hPa 0,3 l/m 1,1 km/h (1 Bft) 0,03 h 0,00 h 2,9 km/h (1 Bft)
23.04.2011 12:00 21,9 C 22,0 C 4,3 UV-I 5,6 C 48 % 51 % 100 % 1012,9 hPa 0,0 l/m 6,7 km/h (2 Bft) 1,00 h 0,00 h 11,7 km/h (2 Bft)
23.04.2011 13:00 22,4 C 24,4 C 6,0 UV-I 5,8 C 47 % 40 % 100 % 1012,9 hPa 0,0 l/m 8,9 km/h (2 Bft) 1,00 h 0,00 h 12,0 km/h (2 Bft)
23.04.2011 14:00 23,4 C 26,2 C 6,3 UV-I 5,7 C 45 % 32 % 100 % 1013,1 hPa 0,0 l/m 9,3 km/h (2 Bft) 1,00 h 0,00 h 11,5 km/h (2 Bft)
23.04.2011 15:00 24,2 C 27,0 C 6,6 UV-I 5,5 C 43 % 30 % 100 % 1013,2 hPa 0,0 l/m 7,9 km/h (2 Bft) 1,00 h 0,00 h 11,6 km/h (2 Bft)
23.04.2011 16:00 24,9 C 27,5 C 6,2 UV-I 5,3 C 41 % 29 % 100 % 1013,2 hPa 0,0 l/m 6,9 km/h (2 Bft) 1,00 h 0,00 h 8,7 km/h (2 Bft)
23.04.2011 17:00 25,3 C 27,2 C 3,5 UV-I 4,0 C 40 % 30 % 98 % 1013,1 hPa 0,0 l/m 8,8 km/h (2 Bft) 0,97 h 0,00 h 12,4 km/h (3 Bft)
23.04.2011 18:00 25,1 C 26,7 C 1,7 UV-I 1,1 C 40 % 31 % 30 % 1012,8 hPa 0,0 l/m 5,6 km/h (1 Bft) 0,00 h 0,00 h 8,3 km/h (2 Bft)
23.04.2011 19:00 24,7 C 24,2 C 0,6 UV-I 0,0 C 41 % 41 % 1 % 1012,9 hPa 1,7 l/m 5,3 km/h (1 Bft) 0,00 h 0,00 h 7,3 km/h (2 Bft)
23.04.2011 20:00 24,2 C 20,9 C 0,1 UV-I 0,0 C 42 % 54 % 0 % 1013,0 hPa 0,0 l/m 0,0 km/h (0 Bft) 0,00 h 0,00 h 0,0 km/h (0 Bft)
23.04.2011 21:00 23,8 C 18,5 C 0,0 UV-I 0,0 C 44 % 61 % 0 % 1013,4 hPa 0,0 l/m 0,0 km/h (0 Bft) 0,00 h 0,00 h 0,0 km/h (0 Bft)
23.04.2011 22:00 23,2 C 16,5 C 0,0 UV-I 0,0 C 46 % 71 % 0 % 1013,9 hPa 0,0 l/m 0,0 km/h (0 Bft) 0,00 h 0,00 h 0,0 km/h (0 Bft)
23.04.2011 23:00 22,8 C 15,1 C 0,0 UV-I 0,0 C 47 % 75 % 0 % 1014,0 hPa 0,0 l/m 0,0 km/h (0 Bft) 0,00 h 0,00 h 0,0 km/h (0 Bft)
24.04.2011 00:00 22,4 C 14,0 C 0,0 UV-I 0,0 C 48 % 77 % 0 % 1014,2 hPa 0,0 l/m 0,0 km/h (0 Bft) 0,00 h 0,00 h 0,0 km/h (0 Bft)
24.04.2011 01:00 22,1 C 13,0 C 0,0 UV-I 0,0 C 49 % 79 % 0 % 1014,5 hPa 0,0 l/m 0,0 km/h (0 Bft) 0,00 h 0,00 h 0,0 km/h (0 Bft)
24.04.2011 02:00 21,9 C 12,0 C 0,0 UV-I 0,0 C 49 % 81 % 0 % 1014,5 hPa 0,0 l/m 0,0 km/h (0 Bft) 0,00 h 0,00 h 0,0 km/h (0 Bft)
24.04.2011 03:00 21,6 C 11,3 C 0,0 UV-I 0,0 C 50 % 83 % 0 % 1014,6 hPa 0,0 l/m 0,0 km/h (0 Bft) 0,00 h 0,00 h 0,0 km/h (0 Bft)
24.04.2011 04:00 21,4 C 10,8 C 0,0 UV-I 0,0 C 50 % 84 % 0 % 1014,6 hPa 0,0 l/m 0,0 km/h (0 Bft) 0,00 h 0,00 h 0,0 km/h (0 Bft)
24.04.2011 05:00 21,2 C 10,2 C 0,0 UV-I 0,0 C 50 % 85 % 0 % 1015,0 hPa 0,0 l/m 0,0 km/h (0 Bft) 0,00 h 0,00 h 0,0 km/h (0 Bft)
24.04.2011 06:00 20,9 C 9,6 C 0,0 UV-I 0,0 C 50 % 86 % 0 % 1015,4 hPa 0,0 l/m 0,0 km/h (0 Bft) 0,00 h 0,00 h 0,0 km/h (0 Bft)
24.04.2011 07:00 20,8 C 9,7 C 0,3 UV-I 0,0 C 51 % 88 % 0 % 1015,9 hPa 0,0 l/m 0,0 km/h (0 Bft) 0,00 h 0,00 h 0,0 km/h (0 Bft)
24.04.2011 08:00 20,9 C 12,5 C 1,1 UV-I 3,1 C 51 % 85 % 58 % 1016,4 hPa 0,0 l/m 0,7 km/h (0 Bft) 0,43 h 0,00 h 2,4 km/h (1 Bft)
24.04.2011 09:00 21,2 C 16,7 C 2,7 UV-I 8,2 C 50 % 72 % 100 % 1016,8 hPa 0,0 l/m 1,4 km/h (1 Bft) 1,00 h 0,00 h 2,8 km/h (1 Bft)
24.04.2011 10:00 21,4 C 19,7 C 5,7 UV-I 7,5 C 50 % 58 % 100 % 1017,1 hPa 0,0 l/m 3,4 km/h (1 Bft) 1,00 h 0,00 h 7,2 km/h (2 Bft)
24.04.2011 11:00 21,6 C 21,5 C 6,9 UV-I 7,3 C 49 % 48 % 100 % 1017,5 hPa 0,0 l/m 4,0 km/h (1 Bft) 1,00 h 0,00 h 6,5 km/h (2 Bft)
24.04.2011 12:00 21,8 C 23,1 C 4,3 UV-I 6,8 C 49 % 43 % 100 % 1017,6 hPa 0,0 l/m 5,9 km/h (2 Bft) 1,00 h 0,00 h 9,5 km/h (2 Bft)
24.04.2011 13:00 22,4 C 24,6 C 6,0 UV-I 6,2 C 47 % 39 % 100 % 1017,6 hPa 0,0 l/m 5,5 km/h (1 Bft) 1,00 h 0,00 h 7,4 km/h (2 Bft)
24.04.2011 14:00 23,4 C 25,7 C 5,9 UV-I 5,8 C 46 % 36 % 100 % 1018,1 hPa 0,0 l/m 6,3 km/h (2 Bft) 1,00 h 0,00 h 8,4 km/h (2 Bft)
24.04.2011 15:00 24,4 C 26,8 C 6,5 UV-I 5,6 C 44 % 34 % 100 % 1018,4 hPa 0,0 l/m 5,6 km/h (1 Bft) 1,00 h 0,00 h 8,3 km/h (2 Bft)
24.04.2011 16:00 25,1 C 27,0 C 5,9 UV-I 5,4 C 42 % 32 % 100 % 1018,6 hPa 0,0 l/m 5,3 km/h (1 Bft) 1,00 h 0,00 h 7,9 km/h (2 Bft)
24.04.2011 17:00 25,4 C 26,5 C 3,6 UV-I 4,0 C 41 % 30 % 94 % 1018,4 hPa 0,0 l/m 7,0 km/h (2 Bft) 0,83 h 0,00 h 9,0 km/h (2 Bft)
24.04.2011 18:00 25,0 C 25,1 C 1,5 UV-I 0,3 C 41 % 31 % 9 % 1018,1 hPa 0,0 l/m 8,8 km/h (2 Bft) 0,00 h 0,00 h 10,5 km/h (2 Bft)
24.04.2011 19:00 24,6 C 24,0 C 0,6 UV-I 0,0 C 41 % 33 % 0 % 1018,1 hPa 0,0 l/m 2,9 km/h (1 Bft) 0,00 h 0,00 h 4,5 km/h (1 Bft)
24.04.2011 20:00 24,1 C 22,0 C 0,1 UV-I 0,0 C 42 % 38 % 0 % 1018,6 hPa 0,0 l/m 1,0 km/h (0 Bft) 0,00 h 0,00 h 2,1 km/h (1 Bft)
24.04.2011 21:00 23,7 C 20,2 C 0,0 UV-I 0,0 C 43 % 40 % 0 % 1019,2 hPa 0,0 l/m 3,8 km/h (1 Bft) 0,00 h 0,00 h 4,6 km/h (1 Bft)
24.04.2011 22:00 23,2 C 18,6 C 0,0 UV-I 0,0 C 43 % 43 % 0 % 1019,9 hPa 0,0 l/m 0,5 km/h (0 Bft) 0,00 h 0,00 h 1,1 km/h (1 Bft)
24.04.2011 23:00 22,8 C 17,1 C 0,0 UV-I 0,0 C 44 % 46 % 0 % 1020,1 hPa 0,0 l/m 0,4 km/h (0 Bft) 0,00 h 0,00 h 1,0 km/h (0 Bft)
Min-Datum _ 18.04.11 18.04.11 18.04.11 18.04.11 18.04.11 22.04.11 18.04.11 22.04.11 - 18.04.11 - - 18.04.11
_ Min-Zeit 07:06 07:18 00:00 00:00 17:18 17:14 00:00 17:36 - 00:00 - - 00:00
Minimum _ 17,2 C 3,5 C 0,0 UV-I 0,0 C 36 % 21 % 0 % 1010,6 hPa - 0,0 km/h (0 Bft) - - 0,0 km/h (0 Bft)
Max-Datum _ 24.04.11 22.04.11 19.04.11 24.04.11 24.04.11 24.04.11 18.04.11 18.04.11 23.04.11 23.04.11 18.04.11 18.04.11 23.04.11
_ Max-Zeit 17:06 15:58 16:16 09:42 06:58 08:00 08:40 00:16 19:28 13:06 08:38 00:00 18:14
Maximum _ 25,5 C 29,0 C 8,4 UV-I 8,5 C 51 % 89 % 100 % 1024,9 hPa 1,7 l/m 14,1 km/h
S-SO (3 Bft)
0,03 h 0,00 h 39,6 km/h
S (6 Bft)
Durchschnitt _ 21,5 C 17,4 C 2,0 UV-I 2,1 C 44 % 53 % 39 % 1016,1 hPa #2,0 l/m 2,7 km/h (1 Bft) #61:24 h #0 min. 4,1 km/h (1 Bft)
© 2012 W. Hausmann